Med Island — 9HA3839 — position and weather

sailwx.info

Track history (hours):
 
Tides and Currents Weather Stations Pressure Air Temp Water Temp Dewpoint Dewpoint Depression Visibility Wind Speed Wind Dir Waves Ship Positions

Med Island

Last reported at 2018-Jul-17 09:10 UTC. Time now 2018-Jul-17 18:39 UTC.
Position N 35°58' W 005°36'.

Length 170 m; draft 9.7 m.

Type: Cargo ship. MMSI: 256155000.

Date/timePositionNaut miles runAvg speedWind from/ knotsBaromVisibWave heightAir tempDewpointWater temp
2018-Jul-17 09:10N 35°58' W 005°36'1 9.2
2018-Jul-17 09:00N 35°58' W 005°34'4 9.0
2018-Jul-17 08:31N 35°60' W 005°29'14 9.0
2018-Jul-17 06:58N 36°03' W 005°12'348 9.9
2018-Jul-15 19:46N 37°07' E 001°53'310.2
2018-Jul-15 19:30N 37°08' E 001°57'610.7
2018-Jul-15 18:54N 37°09' E 002°04'3810.8
2018-Jul-15 15:25N 37°16' E 002°51'4512.3
2018-Jul-15 11:47N 37°24' E 003°46'512.5
2018-Jul-15 11:22N 37°25' E 003°53'512.4
2018-Jul-15 10:56N 37°26' E 003°59'612.3
2018-Jul-15 10:27N 37°28' E 004°07'612.3
2018-Jul-15 09:59N 37°29' E 004°14'1011.8
2018-Jul-15 09:06N 37°31' E 004°26'211.6
2018-Jul-15 08:57N 37°32' E 004°28'2911.6
2018-Jul-15 06:27N 37°34' E 005°05'812.1
2018-Jul-15 05:49N 37°34' E 005°15'1112.4
2018-Jul-15 04:54N 37°35' E 005°29'512.5
2018-Jul-15 04:30N 37°35' E 005°35'612.4
2018-Jul-15 04:00N 37°36' E 005°43'712.1
2018-Jul-15 03:27N 37°37' E 005°52'1312.0
2018-Jul-15 02:19N 37°38' E 006°08'19911.0
2018-Jul-14 08:14N 37°38' E 010°19'311.8
2018-Jul-14 08:00N 37°37' E 010°23'912.0
2018-Jul-14 07:15N 37°35' E 010°34'412.1
2018-Jul-14 06:54N 37°34' E 010°39'512.2
2018-Jul-14 06:30N 37°33' E 010°45'712.0
2018-Jul-14 05:57N 37°32' E 010°53'612.2
2018-Jul-14 05:29N 37°31' E 011°00'6811.8
2018-Jul-13 23:44N 37°01' E 012°17'311.2
2018-Jul-13 23:29N 37°00' E 012°20'611.1
2018-Jul-13 22:56N 36°57' E 012°27'2011.8
2018-Jul-13 21:14N 36°51' E 012°50'311.7
2018-Jul-13 21:00N 36°50' E 012°53'611.6
2018-Jul-13 20:29N 36°48' E 013°00'612.0
2018-Jul-13 20:00N 36°46' E 013°07'611.9
2018-Jul-13 19:30N 36°44' E 013°14'611.8
2018-Jul-13 19:00N 36°42' E 013°21'611.5
2018-Jul-13 18:30N 36°40' E 013°28'611.5
2018-Jul-13 18:00N 36°38' E 013°35'611.6
2018-Jul-13 17:30N 36°36' E 013°41'611.3
2018-Jul-13 17:00N 36°34' E 013°48'611.1
2018-Jul-13 16:30N 36°32' E 013°54'611.3
2018-Jul-13 16:00N 36°30' E 014°01'611.3
2018-Jul-13 15:30N 36°28' E 014°08'611.3
2018-Jul-13 15:00N 36°28' E 014°15'1111.3
2018-Jul-13 14:00N 36°26' E 014°29'611.1
2018-Jul-13 13:30N 36°25' E 014°35'611.0
2018-Jul-13 13:00N 36°24' E 014°42'611.1
2018-Jul-13 12:30N 36°24' E 014°49'611.1
2018-Jul-13 12:00N 36°23' E 014°56'611.2
2018-Jul-13 11:30N 36°22' E 015°03'711.9
2018-Jul-13 10:55N 36°22' E 015°11'41010.5
2018-Jul-11 19:50N 37°17' E 023°38'411.7
2018-Jul-11 19:29N 37°21' E 023°39'611.6
2018-Jul-11 19:00N 37°27' E 023°40'611.5
2018-Jul-11 18:30N 37°33' E 023°41'611.3
2018-Jul-11 18:00N 37°38' E 023°43'611.1
2018-Jul-11 17:30N 37°43' E 023°40'611.5
2018-Jul-11 17:00N 37°49' E 023°37'5 9.7
2018-Jul-11 16:31N 37°53' E 023°33'1 1.1
2018-Jul-11 15:58N 37°53' E 023°33'0 0.0
2018-Jul-11 15:28N 37°53' E 023°33'0 0.0
2018-Jul-11 14:58N 37°53' E 023°33'0 0.1
2018-Jul-11 14:28N 37°53' E 023°33'0 0.1
2018-Jul-11 13:58N 37°53' E 023°33'0 0.0
2018-Jul-11 13:28N 37°53' E 023°33'0 0.0
2018-Jul-11 12:58N 37°53' E 023°33'0 0.1
2018-Jul-11 12:28N 37°53' E 023°33'0 0.0
2018-Jul-11 11:58N 37°53' E 023°33'0 0.0
2018-Jul-11 11:28N 37°53' E 023°33'0 0.0
2018-Jul-11 10:58N 37°53' E 023°33'0 0.0
2018-Jul-11 10:28N 37°53' E 023°33'0 0.0
2018-Jul-11 09:58N 37°53' E 023°33'0 0.0
2018-Jul-11 09:30N 37°53' E 023°33'0 0.1
2018-Jul-11 09:00N 37°53' E 023°33'0 0.1
2018-Jul-11 08:30N 37°53' E 023°33'0 0.2
2018-Jul-11 08:00N 37°53' E 023°33'0 0.1
2018-Jul-11 07:30N 37°53' E 023°33'0 0.0
2018-Jul-11 06:58N 37°53' E 023°33'0 0.0
2018-Jul-11 06:28N 37°53' E 023°33'0 0.0
2018-Jul-11 05:58N 37°53' E 023°33'0 0.0
2018-Jul-11 05:28N 37°53' E 023°33'0 0.0
2018-Jul-11 04:58N 37°53' E 023°33'1 1.2
2018-Jul-11 04:31N 37°52' E 023°33'2 4.1
2018-Jul-11 04:01N 37°52' E 023°36'3 6.5
2018-Jul-11 03:31N 37°50' E 023°40'611.0
2018-Jul-11 03:01N 37°45' E 023°42'611.3
2018-Jul-11 02:30N 37°40' E 023°45'611.3
2018-Jul-11 02:00N 37°38' E 023°52'611.2
2018-Jul-11 01:27N 37°36' E 023°59'1510.7
2018-Jul-11 00:00N 37°45' E 024°16'  
2018-Jul-08 17:03N 43°30' E 029°59'1412.0
2018-Jul-08 15:51N 43°44' E 030°04'611.8
2018-Jul-08 15:20N 43°50' E 030°06'1012.0
2018-Jul-08 14:32N 43°59' E 030°10'312.1
2018-Jul-08 14:19N 44°02' E 030°11'412.1
2018-Jul-08 14:00N 44°06' E 030°12'611.5
2018-Jul-08 13:29N 44°11' E 030°17'1911.8
2018-Jul-08 11:52N 44°29' E 030°24'4311.8
2018-Jul-08 08:14N 45°10' E 030°41'311.7
2018-Jul-08 08:00N 45°13' E 030°42'3111.7
2018-Jul-08 05:21N 45°42' E 030°54'2810.8
2018-Jul-08 02:42N 46°11' E 030°60'311.5
2018-Jul-08 02:26N 46°13' E 030°57'5 9.8
2018-Jul-08 01:57N 46°17' E 030°54'511.5
2018-Jul-08 01:30N 46°22' E 030°55'611.6
2018-Jul-08 00:57N 46°29' E 030°55'5 9.7
2018-Jul-08 00:29N 46°33' E 030°58'4 7.3
2018-Jul-07 23:53N 46°34' E 031°04'410.1
2018-Jul-07 23:29N 46°35' E 031°10'510.9
2018-Jul-07 23:00N 46°35' E 031°17'510.4
2018-Jul-07 22:30N 46°35' E 031°25'5 8.7
2018-Jul-07 21:59N 46°35' E 031°31'510.0
2018-Jul-07 21:29N 46°36' E 031°39'510.1
2018-Jul-07 21:00N 46°36' E 031°46'510.0
2018-Jul-07 20:30N 46°37' E 031°53'5 9.2
2018-Jul-07 20:00N 46°41' E 031°56'5 9.0
2018-Jul-07 19:31N 46°45' E 031°54'4 8.3
2018-Jul-07 19:00N 46°49' E 031°55'5 9.6
2018-Jul-07 18:30N 46°53' E 031°60'3 5.7
2018-Jul-07 18:01N 46°56' E 032°01'1 2.8
2018-Jul-07 17:30N 46°57' E 031°60'0 0.0
2018-Jul-07 16:59N 46°57' E 031°60'0 0.0
2018-Jul-07 16:29N 46°57' E 031°60'0 0.0
2018-Jul-07 15:59N 46°57' E 031°60'0 0.0
2018-Jul-07 15:29N 46°57' E 031°60'0 0.0
2018-Jul-07 14:59N 46°57' E 031°60'0 0.0
2018-Jul-07 14:29N 46°57' E 031°60'0 0.0
2018-Jul-07 13:59N 46°57' E 031°60'0 0.0
2018-Jul-07 13:29N 46°57' E 031°60'0 0.0
2018-Jul-07 12:59N 46°57' E 031°60'0 0.0
2018-Jul-07 12:29N 46°57' E 031°60'0 0.0
2018-Jul-07 11:59N 46°57' E 031°60'0 0.0
2018-Jul-07 11:29N 46°57' E 031°60'0 0.0
2018-Jul-07 10:59N 46°57' E 031°60'0 0.0
2018-Jul-07 10:29N 46°57' E 031°60'0 0.0
2018-Jul-07 09:59N 46°57' E 031°60'0 0.0
2018-Jul-07 09:29N 46°57' E 031°60'  
Track history (hours):
 
Tides and Currents Weather Stations Pressure Air Temp Water Temp Dewpoint Dewpoint Depression Visibility Wind Speed Wind Dir Waves Ship Positions

Med Island

Last reported at 2018-Jul-17 09:10 UTC. Time now 2018-Jul-17 18:39 UTC.
Position N 35°58' W 005°36'.

Length 170 m; draft 9.7 m.

Type: Cargo ship. MMSI: 256155000.

Date/timePositionNaut miles runAvg speedWind from/ knotsBaromVisibWave heightAir tempDewpointWater temp
2018-Jul-17 09:10N 35°58' W 005°36'1 9.2
2018-Jul-17 09:00N 35°58' W 005°34'4 9.0
2018-Jul-17 08:31N 35°60' W 005°29'14 9.0
2018-Jul-17 06:58N 36°03' W 005°12'348 9.9
2018-Jul-15 19:46N 37°07' E 001°53'310.2
2018-Jul-15 19:30N 37°08' E 001°57'610.7
2018-Jul-15 18:54N 37°09' E 002°04'3810.8
2018-Jul-15 15:25N 37°16' E 002°51'4512.3
2018-Jul-15 11:47N 37°24' E 003°46'512.5
2018-Jul-15 11:22N 37°25' E 003°53'512.4
2018-Jul-15 10:56N 37°26' E 003°59'612.3
2018-Jul-15 10:27N 37°28' E 004°07'612.3
2018-Jul-15 09:59N 37°29' E 004°14'1011.8
2018-Jul-15 09:06N 37°31' E 004°26'211.6
2018-Jul-15 08:57N 37°32' E 004°28'2911.6
2018-Jul-15 06:27N 37°34' E 005°05'812.1
2018-Jul-15 05:49N 37°34' E 005°15'1112.4
2018-Jul-15 04:54N 37°35' E 005°29'512.5
2018-Jul-15 04:30N 37°35' E 005°35'612.4
2018-Jul-15 04:00N 37°36' E 005°43'712.1
2018-Jul-15 03:27N 37°37' E 005°52'1312.0
2018-Jul-15 02:19N 37°38' E 006°08'19911.0
2018-Jul-14 08:14N 37°38' E 010°19'311.8
2018-Jul-14 08:00N 37°37' E 010°23'912.0
2018-Jul-14 07:15N 37°35' E 010°34'412.1
2018-Jul-14 06:54N 37°34' E 010°39'512.2
2018-Jul-14 06:30N 37°33' E 010°45'712.0
2018-Jul-14 05:57N 37°32' E 010°53'612.2
2018-Jul-14 05:29N 37°31' E 011°00'6811.8
2018-Jul-13 23:44N 37°01' E 012°17'311.2
2018-Jul-13 23:29N 37°00' E 012°20'611.1
2018-Jul-13 22:56N 36°57' E 012°27'2011.8
2018-Jul-13 21:14N 36°51' E 012°50'311.7
2018-Jul-13 21:00N 36°50' E 012°53'611.6
2018-Jul-13 20:29N 36°48' E 013°00'612.0
2018-Jul-13 20:00N 36°46' E 013°07'611.9
2018-Jul-13 19:30N 36°44' E 013°14'611.8
2018-Jul-13 19:00N 36°42' E 013°21'611.5
2018-Jul-13 18:30N 36°40' E 013°28'611.5
2018-Jul-13 18:00N 36°38' E 013°35'611.6
2018-Jul-13 17:30N 36°36' E 013°41'611.3
2018-Jul-13 17:00N 36°34' E 013°48'611.1
2018-Jul-13 16:30N 36°32' E 013°54'611.3
2018-Jul-13 16:00N 36°30' E 014°01'611.3
2018-Jul-13 15:30N 36°28' E 014°08'611.3
2018-Jul-13 15:00N 36°28' E 014°15'1111.3
2018-Jul-13 14:00N 36°26' E 014°29'611.1
2018-Jul-13 13:30N 36°25' E 014°35'611.0
2018-Jul-13 13:00N 36°24' E 014°42'611.1
2018-Jul-13 12:30N 36°24' E 014°49'611.1
2018-Jul-13 12:00N 36°23' E 014°56'611.2
2018-Jul-13 11:30N 36°22' E 015°03'711.9
2018-Jul-13 10:55N 36°22' E 015°11'41010.5
2018-Jul-11 19:50N 37°17' E 023°38'411.7
2018-Jul-11 19:29N 37°21' E 023°39'611.6
2018-Jul-11 19:00N 37°27' E 023°40'611.5
2018-Jul-11 18:30N 37°33' E 023°41'611.3
2018-Jul-11 18:00N 37°38' E 023°43'611.1
2018-Jul-11 17:30N 37°43' E 023°40'611.5
2018-Jul-11 17:00N 37°49' E 023°37'5 9.7
2018-Jul-11 16:31N 37°53' E 023°33'1 1.1
2018-Jul-11 15:58N 37°53' E 023°33'0 0.0
2018-Jul-11 15:28N 37°53' E 023°33'0 0.0
2018-Jul-11 14:58N 37°53' E 023°33'0 0.1
2018-Jul-11 14:28N 37°53' E 023°33'0 0.1
2018-Jul-11 13:58N 37°53' E 023°33'0 0.0
2018-Jul-11 13:28N 37°53' E 023°33'0 0.0
2018-Jul-11 12:58N 37°53' E 023°33'0 0.1
2018-Jul-11 12:28N 37°53' E 023°33'0 0.0
2018-Jul-11 11:58N 37°53' E 023°33'0 0.0
2018-Jul-11 11:28N 37°53' E 023°33'0 0.0
2018-Jul-11 10:58N 37°53' E 023°33'0 0.0
2018-Jul-11 10:28N 37°53' E 023°33'0 0.0
2018-Jul-11 09:58N 37°53' E 023°33'0 0.0
2018-Jul-11 09:30N 37°53' E 023°33'0 0.1
2018-Jul-11 09:00N 37°53' E 023°33'0 0.1
2018-Jul-11 08:30N 37°53' E 023°33'0 0.2
2018-Jul-11 08:00N 37°53' E 023°33'0 0.1
2018-Jul-11 07:30N 37°53' E 023°33'0 0.0
2018-Jul-11 06:58N 37°53' E 023°33'0 0.0
2018-Jul-11 06:28N 37°53' E 023°33'0 0.0
2018-Jul-11 05:58N 37°53' E 023°33'0 0.0
2018-Jul-11 05:28N 37°53' E 023°33'0 0.0
2018-Jul-11 04:58N 37°53' E 023°33'1 1.2
2018-Jul-11 04:31N 37°52' E 023°33'2 4.1
2018-Jul-11 04:01N 37°52' E 023°36'3 6.5
2018-Jul-11 03:31N 37°50' E 023°40'611.0
2018-Jul-11 03:01N 37°45' E 023°42'611.3
2018-Jul-11 02:30N 37°40' E 023°45'611.3
2018-Jul-11 02:00N 37°38' E 023°52'611.2
2018-Jul-11 01:27N 37°36' E 023°59'1510.7
2018-Jul-11 00:00N 37°45' E 024°16'  
2018-Jul-08 17:03N 43°30' E 029°59'1412.0
2018-Jul-08 15:51N 43°44' E 030°04'611.8
2018-Jul-08 15:20N 43°50' E 030°06'1012.0
2018-Jul-08 14:32N 43°59' E 030°10'312.1
2018-Jul-08 14:19N 44°02' E 030°11'412.1
2018-Jul-08 14:00N 44°06' E 030°12'611.5
2018-Jul-08 13:29N 44°11' E 030°17'1911.8
2018-Jul-08 11:52N 44°29' E 030°24'4311.8
2018-Jul-08 08:14N 45°10' E 030°41'311.7
2018-Jul-08 08:00N 45°13' E 030°42'3111.7
2018-Jul-08 05:21N 45°42' E 030°54'2810.8
2018-Jul-08 02:42N 46°11' E 030°60'311.5
2018-Jul-08 02:26N 46°13' E 030°57'5 9.8
2018-Jul-08 01:57N 46°17' E 030°54'511.5
2018-Jul-08 01:30N 46°22' E 030°55'611.6
2018-Jul-08 00:57N 46°29' E 030°55'5 9.7
2018-Jul-08 00:29N 46°33' E 030°58'4 7.3
2018-Jul-07 23:53N 46°34' E 031°04'410.1
2018-Jul-07 23:29N 46°35' E 031°10'510.9
2018-Jul-07 23:00N 46°35' E 031°17'510.4
2018-Jul-07 22:30N 46°35' E 031°25'5 8.7
2018-Jul-07 21:59N 46°35' E 031°31'510.0
2018-Jul-07 21:29N 46°36' E 031°39'510.1
2018-Jul-07 21:00N 46°36' E 031°46'510.0
2018-Jul-07 20:30N 46°37' E 031°53'5 9.2
2018-Jul-07 20:00N 46°41' E 031°56'5 9.0
2018-Jul-07 19:31N 46°45' E 031°54'4 8.3
2018-Jul-07 19:00N 46°49' E 031°55'5 9.6
2018-Jul-07 18:30N 46°53' E 031°60'3 5.7
2018-Jul-07 18:01N 46°56' E 032°01'1 2.8
2018-Jul-07 17:30N 46°57' E 031°60'0 0.0
2018-Jul-07 16:59N 46°57' E 031°60'0 0.0
2018-Jul-07 16:29N 46°57' E 031°60'0 0.0
2018-Jul-07 15:59N 46°57' E 031°60'0 0.0
2018-Jul-07 15:29N 46°57' E 031°60'0 0.0
2018-Jul-07 14:59N 46°57' E 031°60'0 0.0
2018-Jul-07 14:29N 46°57' E 031°60'0 0.0
2018-Jul-07 13:59N 46°57' E 031°60'0 0.0
2018-Jul-07 13:29N 46°57' E 031°60'0 0.0
2018-Jul-07 12:59N 46°57' E 031°60'0 0.0
2018-Jul-07 12:29N 46°57' E 031°60'0 0.0
2018-Jul-07 11:59N 46°57' E 031°60'0 0.0
2018-Jul-07 11:29N 46°57' E 031°60'0 0.0
2018-Jul-07 10:59N 46°57' E 031°60'0 0.0
2018-Jul-07 10:29N 46°57' E 031°60'0 0.0
2018-Jul-07 09:59N 46°57' E 031°60'0 0.0
2018-Jul-07 09:29N 46°57' E 031°60'  

Dump ship's entire track history